Time;durP1;ratioP1;P1;durP2;ratioP2;P2;SDS_P1;SDS_P2;PMS_P1;PMS_P2;Temp;Humidity;BMP_temperature;BMP_pressure;BME280_temperature;BME280_humidity;BME280_pressure;Samples;Min_cycle;Max_cycle;Signal;HPM_P1;HPM_P2
2022/10/14 00:00:17;;;;;;;1999.90;999.90;;;;;;;12.82;100.00;93928.63;5056658;28;20185;-60
2022/10/14 00:02:43;;;;;;;1999.90;999.90;;;;;;;12.82;100.00;93934.84;5056926;28;20178;-60
2022/10/14 00:05:09;;;;;;;1999.90;999.90;;;;;;;12.80;100.00;93931.03;5056729;28;20279;-61
2022/10/14 00:07:35;;;;;;;1999.90;999.90;;;;;;;12.80;100.00;93923.59;5057141;28;20181;-61
2022/10/14 00:10:01;;;;;;;1999.90;999.90;;;;;;;12.82;100.00;93920.41;5056264;28;20204;-61
2022/10/14 00:12:28;;;;;;;1999.90;999.90;;;;;;;12.83;100.00;93916.44;5056470;28;20220;-60
2022/10/14 00:14:53;;;;;;;1999.90;999.90;;;;;;;12.81;100.00;93916.13;5056375;28;20209;-62
2022/10/14 00:17:19;;;;;;;1999.90;999.90;;;;;;;12.76;100.00;93903.78;5056427;28;20242;-58
2022/10/14 00:19:44;;;;;;;1999.90;999.90;;;;;;;12.75;100.00;93902.25;5055965;28;20222;-58
2022/10/14 00:22:09;;;;;;;1999.90;999.90;;;;;;;12.72;100.00;93905.16;5056507;28;20174;-58
2022/10/14 00:24:35;;;;;;;1999.90;999.90;;;;;;;12.73;100.00;93904.72;5056221;28;20176;-59
2022/10/14 00:27:00;;;;;;;1999.90;999.90;;;;;;;12.73;100.00;93901.19;5056145;28;20183;-61
2022/10/14 00:29:25;;;;;;;1999.90;999.90;;;;;;;12.69;100.00;93901.34;5055823;28;20181;-60
2022/10/14 00:31:52;;;;;;;1999.90;999.90;;;;;;;12.69;100.00;93897.84;5056056;28;20181;-59
2022/10/14 00:34:18;;;;;;;1999.90;999.90;;;;;;;12.68;100.00;93893.59;5055720;28;20299;-62
2022/10/14 00:36:43;;;;;;;1999.90;999.90;;;;;;;12.68;100.00;93896.31;5056180;28;20224;-59
2022/10/14 00:39:10;;;;;;;1999.90;999.90;;;;;;;12.69;100.00;93892.38;5055763;28;20208;-58
2022/10/14 00:41:35;;;;;;;1999.90;999.90;;;;;;;12.69;100.00;93897.84;5055959;28;20306;-59
2022/10/14 00:44:13;;;;;;;1999.90;999.90;;;;;;;12.68;100.00;93886.13;5056383;28;20268;-58
2022/10/14 00:46:41;;;;;;;1999.90;999.90;;;;;;;12.68;100.00;93879.88;5056296;28;20243;-59
2022/10/14 00:49:23;;;;;;;1999.90;999.90;;;;;;;12.69;100.00;93886.88;5055819;28;20197;-58
2022/10/14 00:51:57;;;;;;;1999.90;999.90;;;;;;;12.68;100.00;93883.38;5055541;28;20177;-66
2022/10/14 00:54:28;;;;;;;1999.90;999.90;;;;;;;12.66;100.00;93883.09;5056193;28;20208;-56
2022/10/14 00:56:53;;;;;;;1999.90;999.90;;;;;;;12.59;100.00;93888.06;5054514;28;20175;-57
2022/10/14 00:59:19;;;;;;;1999.90;999.90;;;;;;;12.58;100.00;93889.28;5055674;28;20207;-57
2022/10/14 01:01:44;;;;;;;1999.90;999.90;;;;;;;12.54;100.00;93892.16;5055954;28;20280;-57
2022/10/14 01:04:10;;;;;;;1999.90;999.90;;;;;;;12.54;100.00;93886.69;5056052;28;20200;-56
2022/10/14 01:06:53;;;;;;;1999.90;999.90;;;;;;;12.52;100.00;93889.13;5055114;28;20268;-57
2022/10/14 01:09:35;;;;;;;1999.90;999.90;;;;;;;12.51;100.00;93881.34;5055788;28;20237;-66
2022/10/14 01:12:34;;;;;;;1999.90;999.90;;;;;;;12.47;100.00;93878.00;5055337;28;20207;-62
2022/10/14 01:15:16;;;;;;;1999.90;999.90;;;;;;;12.45;100.00;93878.44;5055747;28;20270;-67
2022/10/14 01:18:14;;;;;;;1999.90;999.90;;;;;;;12.45;100.00;93877.69;5055710;28;20211;-67
2022/10/14 01:21:10;;;;;;;1999.90;999.90;;;;;;;12.40;100.00;93876.31;5055033;28;20396;-69
2022/10/14 01:23:43;;;;;;;1999.90;999.90;;;;;;;12.39;100.00;93887.72;5055774;28;20210;-68
2022/10/14 01:26:46;;;;;;;1999.90;999.90;;;;;;;12.37;100.00;93876.44;5055846;28;20275;-68
2022/10/14 01:29:56;;;;;;;1999.90;999.90;;;;;;;12.33;100.00;93876.59;5055183;28;20188;-63
2022/10/14 01:32:24;;;;;;;1999.90;999.90;;;;;;;12.34;100.00;93878.09;5053605;28;20221;-57
2022/10/14 01:35:00;;;;;;;1999.90;999.90;;;;;;;12.35;100.00;93878.88;5055260;28;20291;-59
2022/10/14 01:37:28;;;;;;;1999.90;999.90;;;;;;;12.37;100.00;93876.44;5055308;28;20176;-57
2022/10/14 01:40:00;;;;;;;1999.90;999.90;;;;;;;12.36;100.00;93874.94;5055450;28;20180;-58
2022/10/14 01:42:32;;;;;;;1999.90;999.90;;;;;;;12.37;100.00;93871.75;5055407;28;20197;-57
2022/10/14 01:45:10;;;;;;;1999.90;999.90;;;;;;;12.39;100.00;93871.28;5055447;28;20184;-58
2022/10/14 01:47:38;;;;;;;1999.90;999.90;;;;;;;12.40;100.00;93870.06;5055265;28;20180;-64
2022/10/14 01:50:10;;;;;;;1999.90;999.90;;;;;;;12.42;100.00;93873.13;5054899;28;20208;-59
2022/10/14 01:52:46;;;;;;;1999.90;999.90;;;;;;;12.42;100.00;93867.66;5055122;28;20173;-58
2022/10/14 01:55:16;;;;;;;1999.90;999.90;;;;;;;12.40;100.00;93864.59;5055241;28;20202;-59
2022/10/14 01:57:43;;;;;;;1999.90;999.90;;;;;;;12.40;100.00;93864.59;5054079;28;20227;-59
2022/10/14 02:00:10;;;;;;;1999.90;999.90;;;;;;;12.43;100.00;93863.69;5054281;28;20177;-58
2022/10/14 02:02:36;;;;;;;1999.90;999.90;;;;;;;12.37;100.00;93868.22;5054039;28;20263;-58
2022/10/14 02:05:09;;;;;;;1999.90;999.90;;;;;;;12.39;100.00;93871.28;5054436;28;20233;-68
2022/10/14 02:07:41;;;;;;;1999.90;999.90;;;;;;;12.37;100.00;93865.50;5053737;28;20169;-61
2022/10/14 02:10:16;;;;;;;1999.90;999.90;;;;;;;12.38;100.00;93867.00;5054397;28;20183;-60
2022/10/14 02:13:26;;;;;;;1999.90;999.90;;;;;;;12.38;100.00;93867.78;5054140;28;20180;-62
2022/10/14 02:16:00;;;;;;;1999.90;999.90;;;;;;;12.37;100.00;93860.00;5036397;28;20231;-60
2022/10/14 02:18:37;;;;;;;1999.90;999.90;;;;;;;12.36;100.00;93858.50;5037212;28;20268;-60
2022/10/14 02:21:06;;;;;;;1999.90;999.90;;;;;;;12.34;100.00;93866.38;5053678;28;20228;-60
2022/10/14 02:23:39;;;;;;;1999.90;999.90;;;;;;;12.34;100.00;93867.16;5054104;28;20184;-63
2022/10/14 02:26:05;;;;;;;1999.90;999.90;;;;;;;12.35;100.00;93865.19;5054608;28;20182;-59
2022/10/14 02:28:32;;;;;;;1999.90;999.90;;;;;;;12.34;100.00;93874.59;5053973;28;20180;-58
2022/10/14 02:31:07;;;;;;;1999.90;999.90;;;;;;;12.33;100.00;93873.09;5053550;28;20234;-59
2022/10/14 02:33:40;;;;;;;1999.90;999.90;;;;;;;12.30;100.00;93877.50;5053723;28;20235;-59
2022/10/14 02:36:07;;;;;;;1999.90;999.90;;;;;;;12.33;100.00;93870.34;5053712;28;20180;-59
2022/10/14 02:38:34;;;;;;;1999.90;999.90;;;;;;;12.35;100.00;93870.66;5053675;28;20180;-59
2022/10/14 02:41:04;;;;;;;1999.90;999.90;;;;;;;12.34;100.00;93871.88;5053348;28;20185;-58
2022/10/14 02:43:29;;;;;;;1999.90;999.90;;;;;;;12.30;100.00;93872.03;5053804;28;20200;-64
2022/10/14 02:46:01;;;;;;;1999.90;999.90;;;;;;;12.31;100.00;93883.75;5053566;28;20275;-68
2022/10/14 02:48:26;;;;;;;1999.90;999.90;;;;;;;12.29;100.00;93884.19;5053809;28;20197;-68
2022/10/14 02:50:51;;;;;;;1999.90;999.90;;;;;;;12.28;100.00;93884.63;5053585;28;20181;-67
2022/10/14 02:53:17;;;;;;;1999.90;999.90;;;;;;;12.29;100.00;93883.41;5053506;28;20233;-68
2022/10/14 02:55:42;;;;;;;1999.90;999.90;;;;;;;12.28;100.00;93884.63;5053351;28;20174;-68
2022/10/14 02:58:08;;;;;;;1999.90;999.90;;;;;;;12.30;100.00;93879.47;5053938;28;20185;-68
2022/10/14 03:00:33;;;;;;;1999.90;999.90;;;;;;;12.30;100.00;93882.19;5053306;28;20177;-58
2022/10/14 03:02:58;;;;;;;1999.90;999.90;;;;;;;12.30;100.00;93884.94;5053547;28;20230;-58
2022/10/14 03:05:24;;;;;;;1999.90;999.90;;;;;;;12.27;100.00;93888.56;5052975;28;20196;-59
2022/10/14 03:07:49;;;;;;;1999.90;999.90;;;;;;;12.28;100.00;93879.16;5053334;28;20185;-59
2022/10/14 03:10:15;;;;;;;1999.90;999.90;;;;;;;12.24;100.00;93890.22;5053433;28;20177;-59
2022/10/14 03:12:40;;;;;;;1999.90;999.90;;;;;;;12.23;100.00;93885.97;5053359;28;20184;-59
2022/10/14 03:15:06;;;;;;;1999.90;999.90;;;;;;;12.23;100.00;93893.41;5053239;28;20205;-59
2022/10/14 03:17:32;;;;;;;1999.90;999.90;;;;;;;12.22;100.00;93886.44;5053047;28;20216;-59
2022/10/14 03:19:58;;;;;;;1999.90;999.90;;;;;;;12.21;100.00;93898.59;5055191;28;20244;-60
2022/10/14 03:22:23;;;;;;;1999.90;999.90;;;;;;;12.23;100.00;93890.69;5057647;28;20178;-58
2022/10/14 03:24:49;;;;;;;1999.90;999.90;;;;;;;12.26;100.00;93892.53;5057220;28;20169;-58
2022/10/14 03:27:14;;;;;;;1999.90;999.90;;;;;;;12.25;100.00;93894.50;5057452;28;20179;-59
2022/10/14 03:29:39;;;;;;;1999.90;999.90;;;;;;;12.27;100.00;93888.56;5057820;28;20178;-58
2022/10/14 03:32:05;;;;;;;1999.90;999.90;;;;;;;12.27;100.00;93894.03;5057230;28;20184;-57
2022/10/14 03:34:30;;;;;;;1999.90;999.90;;;;;;;12.30;100.00;93887.66;5056970;28;20195;-58
2022/10/14 03:36:55;;;;;;;1999.90;999.90;;;;;;;12.28;100.00;93890.09;5057669;28;20205;-60
2022/10/14 03:39:21;;;;;;;1999.90;999.90;;;;;;;12.27;100.00;93891.31;5057027;28;20182;-62
2022/10/14 03:41:46;;;;;;;1999.90;999.90;;;;;;;12.28;100.00;93881.91;5057100;28;20207;-66
2022/10/14 03:44:12;;;;;;;1999.90;999.90;;;;;;;12.30;100.00;93893.91;5056976;28;20171;-66
2022/10/14 03:46:37;;;;;;;1999.90;999.90;;;;;;;12.32;100.00;93890.72;5057668;28;20171;-66
2022/10/14 03:49:03;;;;;;;1999.90;999.90;;;;;;;12.33;100.00;93892.25;5057532;28;20176;-68
2022/10/14 03:51:28;;;;;;;1999.90;999.90;;;;;;;12.34;100.00;93888.28;5057099;28;20205;-66
2022/10/14 03:53:53;;;;;;;1999.90;999.90;;;;;;;12.33;100.00;93887.53;5056787;28;20207;-67
2022/10/14 03:56:19;;;;;;;1999.90;999.90;;;;;;;12.34;100.00;93893.75;5057470;28;20178;-67
2022/10/14 03:58:44;;;;;;;1999.90;999.90;;;;;;;12.34;100.00;93886.31;5056511;28;20222;-68
2022/10/14 04:01:09;;;;;;;1999.90;999.90;;;;;;;12.34;100.00;93888.28;5056459;28;20173;-67
2022/10/14 04:03:35;;;;;;;1999.90;999.90;;;;;;;12.35;100.00;93878.88;5056374;28;20200;-67
2022/10/14 04:06:00;;;;;;;1999.90;999.90;;;;;;;12.34;100.00;93886.31;5056767;28;20173;-67
2022/10/14 04:08:25;;;;;;;1999.90;999.90;;;;;;;12.33;100.00;93892.25;5056438;28;20242;-67
2022/10/14 04:10:55;;;;;;;1999.90;999.90;;;;;;;12.31;100.00;93889.22;5056542;28;20171;-66
2022/10/14 04:13:21;;;;;;;1999.90;999.90;;;;;;;12.30;100.00;93885.69;5056329;28;20199;-68
2022/10/14 04:15:46;;;;;;;1999.90;999.90;;;;;;;12.32;100.00;93890.72;5056423;28;20174;-59
2022/10/14 04:18:11;;;;;;;1999.90;999.90;;;;;;;12.31;100.00;93883.75;5056375;28;20180;-62
2022/10/14 04:20:37;;;;;;;1999.90;999.90;;;;;;;12.28;100.00;93879.16;5056345;28;20347;-62
2022/10/14 04:23:03;;;;;;;1999.90;999.90;;;;;;;12.30;100.00;93876.72;5055854;28;20178;-62
2022/10/14 04:25:28;;;;;;;1999.90;999.90;;;;;;;12.31;100.00;93867.31;5056003;28;20196;-62
2022/10/14 04:27:54;;;;;;;1999.90;999.90;;;;;;;12.27;100.00;93877.63;5056556;28;20172;-62
2022/10/14 04:30:19;;;;;;;1999.90;999.90;;;;;;;12.26;100.00;93871.41;5056127;28;20180;-62
2022/10/14 04:32:45;;;;;;;1999.90;999.90;;;;;;;12.26;100.00;93870.63;5056213;28;20172;-58
2022/10/14 04:35:11;;;;;;;1999.90;999.90;;;;;;;12.27;100.00;93872.91;5056880;28;20193;-58
2022/10/14 04:37:36;;;;;;;1999.90;999.90;;;;;;;12.24;100.00;93876.53;5055996;28;20176;-58
2022/10/14 04:40:02;;;;;;;1999.90;999.90;;;;;;;12.25;100.00;93869.09;5056537;28;20224;-58
2022/10/14 04:42:28;;;;;;;1999.90;999.90;;;;;;;12.22;100.00;93870.00;5055903;28;20181;-58
2022/10/14 04:44:53;;;;;;;1999.90;999.90;;;;;;;12.21;100.00;93869.22;5055730;28;20181;-57
2022/10/14 04:47:19;;;;;;;1999.90;999.90;;;;;;;12.22;100.00;93867.28;5055842;28;20241;-58
2022/10/14 04:49:44;;;;;;;1999.90;999.90;;;;;;;12.21;100.00;93857.53;5055830;28;20253;-59
2022/10/14 04:52:09;;;;;;;1999.90;999.90;;;;;;;12.21;100.00;93863.00;5055740;28;20175;-58
2022/10/14 04:54:35;;;;;;;1999.90;999.90;;;;;;;12.20;100.00;93861.50;5055601;28;20204;-61
2022/10/14 04:57:00;;;;;;;1999.90;999.90;;;;;;;12.20;100.00;93861.50;5055606;28;20185;-62
2022/10/14 04:59:25;;;;;;;1999.90;999.90;;;;;;;12.15;100.00;93864.81;5055359;28;20230;-63
2022/10/14 05:01:51;;;;;;;1999.90;999.90;;;;;;;12.14;100.00;93857.81;5055909;28;20194;-62
2022/10/14 05:04:16;;;;;;;1999.90;999.90;;;;;;;12.12;100.00;93861.00;5055464;28;20202;-62
2022/10/14 05:06:44;;;;;;;1999.90;999.90;;;;;;;12.09;100.00;93861.16;5055609;28;20176;-63
2022/10/14 05:09:09;;;;;;;1999.90;999.90;;;;;;;12.07;100.00;93858.09;5055586;28;20248;-58
2022/10/14 05:11:35;;;;;;;1999.90;999.90;;;;;;;12.07;100.00;93863.56;5056167;28;20167;-68
2022/10/14 05:14:00;;;;;;;1999.90;999.90;;;;;;;12.06;100.00;93856.56;5054906;28;20199;-57
2022/10/14 05:16:26;;;;;;;1999.90;999.90;;;;;;;12.06;100.00;93864.78;5054756;28;20179;-57
2022/10/14 05:18:52;;;;;;;1999.90;999.90;;;;;;;12.06;100.00;93856.56;5055165;28;20214;-57
2022/10/14 05:21:17;;;;;;;1999.90;999.90;;;;;;;12.04;100.00;93859.75;5055083;28;20221;-57
2022/10/14 05:23:42;;;;;;;1999.90;999.90;;;;;;;12.07;100.00;93858.09;5054832;28;20183;-57
2022/10/14 05:26:09;;;;;;;1999.90;999.90;;;;;;;12.08;100.00;93848.66;5054736;28;20275;-57
2022/10/14 05:28:37;;;;;;;1999.90;999.90;;;;;;;12.08;100.00;93851.41;5054648;28;20176;-68
2022/10/14 05:31:03;;;;;;;1999.90;999.90;;;;;;;12.23;100.00;93849.63;5054833;28;20218;-62
2022/10/14 05:33:29;;;;;;;1999.90;999.90;;;;;;;12.26;100.00;93846.00;5054999;28;20231;-62
2022/10/14 05:35:54;;;;;;;1999.90;999.90;;;;;;;12.28;100.00;93851.78;5055014;28;20218;-62
2022/10/14 05:38:19;;;;;;;1999.90;999.90;;;;;;;12.28;100.00;93851.78;5055068;28;20259;-61
2022/10/14 05:40:56;;;;;;;1999.90;999.90;;;;;;;12.31;100.00;93850.91;5054332;28;20170;-64
2022/10/14 05:43:23;;;;;;;1999.90;999.90;;;;;;;12.34;100.00;93849.97;5053850;28;20179;-61
2022/10/14 05:45:49;;;;;;;1999.90;999.90;;;;;;;12.34;100.00;93847.22;5054492;28;20185;-59
2022/10/14 05:48:16;;;;;;;1999.90;999.90;;;;;;;12.24;100.00;93849.19;5054681;28;20201;-66
2022/10/14 05:50:42;;;;;;;1999.90;999.90;;;;;;;12.19;100.00;93854.47;5054100;28;20226;-58
2022/10/14 05:53:08;;;;;;;1999.90;999.90;;;;;;;12.17;100.00;93862.41;5054440;28;20212;-59
2022/10/14 05:55:33;;;;;;;1999.90;999.90;;;;;;;12.12;100.00;93860.22;5054531;28;20173;-59
2022/10/14 05:57:58;;;;;;;1999.90;999.90;;;;;;;12.12;100.00;93866.47;5054724;28;20192;-58
2022/10/14 06:00:24;;;;;;;1999.90;999.90;;;;;;;12.27;100.00;93855.72;5054789;28;20179;-58
2022/10/14 06:02:49;;;;;;;1999.90;999.90;;;;;;;12.23;100.00;93860.56;5054351;28;20258;-58
2022/10/14 06:05:16;;;;;;;1999.90;999.90;;;;;;;12.15;100.00;93864.81;5055241;28;20230;-66
2022/10/14 06:07:41;;;;;;;1999.90;999.90;;;;;;;12.16;100.00;93855.38;5054703;28;20176;-62
2022/10/14 06:10:07;;;;;;;1999.90;999.90;;;;;;;12.25;100.00;93852.69;5054036;28;20262;-63
2022/10/14 06:12:32;;;;;;;1999.90;999.90;;;;;;;12.31;100.00;93850.91;5055019;28;20181;-63
2022/10/14 06:14:57;;;;;;;1999.90;999.90;;;;;;;12.38;100.00;93850.59;5054074;28;20246;-62
2022/10/14 06:17:23;;;;;;;1999.90;999.90;;;;;;;12.41;100.00;93849.69;5053992;28;20269;-61
2022/10/14 06:19:48;;;;;;;1999.90;999.90;;;;;;;12.35;100.00;93848.78;5054265;28;20245;-62
2022/10/14 06:22:13;;;;;;;1999.90;999.90;;;;;;;12.49;100.00;93848.19;5054326;28;20188;-65
2022/10/14 06:24:39;;;;;;;1999.90;999.90;;;;;;;12.45;100.00;93850.31;5054387;28;20173;-60
2022/10/14 06:27:04;;;;;;;1999.90;999.90;;;;;;;12.55;100.00;93838.16;5053896;28;20214;-58
2022/10/14 06:29:36;;;;;;;1999.90;999.90;;;;;;;12.45;100.00;93853.81;5053448;28;20204;-58
2022/10/14 06:32:05;;;;;;;1999.90;999.90;;;;;;;12.55;100.00;93838.16;5053808;28;20165;-58
2022/10/14 06:34:31;;;;;;;1999.90;999.90;;;;;;;12.55;100.00;93838.94;5054698;28;20243;-58
2022/10/14 06:36:57;;;;;;;1999.90;999.90;;;;;;;12.61;100.00;93844.56;5053779;28;20175;-58
2022/10/14 06:39:22;;;;;;;1999.90;999.90;;;;;;;12.59;100.00;93844.25;5053930;28;20184;-58
2022/10/14 06:41:48;;;;;;;1999.90;999.90;;;;;;;12.70;100.00;93844.56;5053698;28;20177;-62
2022/10/14 06:44:14;;;;;;;1999.90;999.90;;;;;;;12.71;100.00;93835.91;5053598;28;20267;-67
2022/10/14 06:46:40;;;;;;;1999.90;999.90;;;;;;;12.79;100.00;93841.88;5053470;28;20184;-67
2022/10/14 06:49:06;;;;;;;1999.90;999.90;;;;;;;12.89;100.00;93841.41;5054094;28;20181;-67
2022/10/14 06:51:31;;;;;;;1999.90;999.90;;;;;;;13.02;100.00;93844.03;5053677;28;20170;-67
2022/10/14 06:53:56;;;;;;;1999.90;999.90;;;;;;;13.04;100.00;93836.88;5052232;28;20232;-67
2022/10/14 06:56:22;;;;;;;1999.90;999.90;;;;;;;12.96;100.00;93851.31;5053685;28;20201;-67
2022/10/14 06:58:47;;;;;;;1999.90;999.90;;;;;;;13.06;100.00;93850.13;5053707;28;20269;-58
2022/10/14 07:01:12;;;;;;;1999.90;999.90;;;;;;;13.10;100.00;93840.53;5054181;28;20219;-62
2022/10/14 07:03:38;;;;;;;1999.90;999.90;;;;;;;13.20;100.00;93844.03;5053645;28;20201;-59
2022/10/14 07:06:05;;;;;;;1999.90;999.90;;;;;;;13.33;100.00;93830.91;5053655;28;20177;-60
2022/10/14 07:08:31;;;;;;;1999.90;999.90;;;;;;;13.48;100.00;93834.56;5053271;28;20264;-60
2022/10/14 07:10:56;;;;;;;1999.90;999.90;;;;;;;13.60;100.00;93825.41;5053043;28;20212;-59
2022/10/14 07:13:22;;;;;;;1999.90;999.90;;;;;;;13.65;100.00;93816.53;5053161;28;20177;-60
2022/10/14 07:15:48;;;;;;;1999.90;999.90;;;;;;;13.75;100.00;93814.53;5053264;28;20180;-60
2022/10/14 07:18:14;;;;;;;1999.90;999.90;;;;;;;14.50;100.00;93789.34;5053705;28;20173;-60
2022/10/14 07:20:40;;;;;;;1999.90;999.90;;;;;;;16.39;100.00;93699.38;5053552;28;20214;-60
2022/10/14 07:23:05;;;;;;;1999.90;999.90;;;;;;;17.85;100.00;93641.16;5054101;28;20170;-60
2022/10/14 07:25:31;;;;;;;1999.90;999.90;;;;;;;19.00;100.00;93637.41;5053446;28;20202;-60
2022/10/14 07:27:57;;;;;;;1999.90;999.90;;;;;;;19.28;100.00;93701.91;5053791;28;20304;-60
2022/10/14 07:30:23;;;;;;;1999.90;999.90;;;;;;;19.23;100.00;93766.31;5053692;28;20254;-60
2022/10/14 07:32:48;;;;;;;1999.90;999.90;;;;;;;18.66;100.00;93843.25;5053478;28;20241;-61
2022/10/14 07:35:14;;;;;;;1999.90;999.90;;;;;;;19.15;100.00;93862.13;5053165;28;20216;-60
2022/10/14 07:37:39;;;;;;;1999.90;999.90;;;;;;;19.31;100.00;93894.72;5053102;28;20182;-66
2022/10/14 07:40:05;;;;;;;1999.90;999.90;;;;;;;19.36;100.00;93924.44;5053474;28;20174;-60
2022/10/14 07:42:31;;;;;;;1999.90;999.90;;;;;;;20.35;100.00;93924.06;5053047;28;20206;-61
2022/10/14 07:44:57;;;;;;;1999.90;999.90;;;;;;;21.16;100.00;93939.25;5052860;28;20174;-61
2022/10/14 07:47:22;;;;;;;1999.90;999.90;;;;;;;20.49;100.00;94017.38;5052580;28;20181;-61
2022/10/14 07:49:48;;;;;;;1999.90;999.90;;;;;;;19.72;100.00;94051.06;5052972;28;20178;-62
2022/10/14 07:52:14;;;;;;;1999.90;999.90;;;;;;;19.25;100.00;94066.34;5052848;28;20170;-61
2022/10/14 07:54:40;;;;;;;1999.90;999.90;;;;;;;19.04;100.00;94064.09;5052813;28;20202;-61
2022/10/14 07:57:05;;;;;;;1999.90;999.90;;;;;;;19.57;100.00;94053.22;5052606;28;20235;-59
2022/10/14 07:59:30;;;;;;;1999.90;999.90;;;;;;;19.32;100.00;94073.44;5052909;28;20166;-66
2022/10/14 08:01:56;;;;;;;1999.90;999.90;;;;;;;19.65;100.00;94078.44;5052865;28;20181;-66
2022/10/14 08:04:22;;;;;;;1999.90;999.90;;;;;;;19.62;100.00;94091.28;5052830;28;20205;-66
2022/10/14 08:06:48;;;;;;;1999.90;999.90;;;;;;;20.21;100.00;94078.31;5055805;28;20174;-66
2022/10/14 08:09:14;;;;;;;1999.90;999.90;;;;;;;20.13;100.00;94102.22;5056835;28;20169;-66
2022/10/14 08:11:39;;;;;;;1999.90;999.90;;;;;;;21.71;100.00;94100.34;5056206;28;20170;-67
2022/10/14 08:14:06;;;;;;;1999.90;999.90;;;;;;;23.47;100.00;94115.66;5056697;28;20208;-64
2022/10/14 08:16:33;;;;;;;1999.90;999.90;;;;;;;24.95;100.00;94193.72;5056238;28;20181;-61
2022/10/14 08:19:02;;;;;;;1999.90;999.90;;;;;;;25.57;100.00;94938.56;5056186;28;20177;-61
2022/10/14 08:21:27;;;;;;;1999.90;999.90;;;;;;;25.42;100.00;95308.81;5056450;28;20225;-61
2022/10/14 08:23:53;;;;;;;1999.90;999.90;;;;;;;25.60;100.00;95340.44;5056070;28;20269;-62
2022/10/14 08:26:24;;;;;;;1999.90;999.90;;;;;;;25.48;100.00;95350.81;5055894;28;20180;-60
2022/10/14 08:28:50;;;;;;;1999.90;999.90;;;;;;;25.04;100.00;95339.34;5055976;28;20197;-62
2022/10/14 08:31:15;;;;;;;1999.90;999.90;;;;;;;24.99;100.00;95337.28;5056755;28;20261;-62
2022/10/14 08:33:41;;;;;;;1999.90;999.90;;;;;;;25.02;100.00;95353.06;5056056;28;20269;-62
2022/10/14 08:36:06;;;;;;;1999.90;999.90;;;;;;;25.60;100.00;95352.38;5055940;28;20174;-61
2022/10/14 08:38:32;;;;;;;1999.90;999.90;;;;;;;25.97;100.00;95350.28;5056197;28;20204;-62
2022/10/14 08:41:07;;;;;;;1999.90;999.90;;;;;;;26.26;100.00;95355.41;5055707;28;20173;-61
2022/10/14 08:43:38;;;;;;;1999.90;999.90;;;;;;;26.04;100.00;95360.97;5056324;28;20177;-61
2022/10/14 08:46:17;;;;;;;1999.90;999.90;;;;;;;26.88;100.00;95371.78;5057325;28;20174;-62
2022/10/14 08:48:45;;;;;;;1999.90;999.90;;;;;;;26.27;100.00;95358.97;5055724;28;20177;-62
2022/10/14 08:51:15;;;;;;;1999.90;999.90;;;;;;;25.95;100.00;95357.59;5055615;28;20172;-68
2022/10/14 08:53:55;;;;;;;1999.90;999.90;;;;;;;26.77;96.36;95368.97;5055739;28;20198;-60
2022/10/14 08:56:22;;;;;;;1999.90;999.90;;;;;;;26.54;98.08;95361.81;5055537;28;20178;-60
2022/10/14 08:58:50;;;;;;;1999.90;999.90;;;;;;;26.86;94.65;95362.38;5055628;28;20253;-60
2022/10/14 09:01:31;;;;;;;1999.90;999.90;;;;;;;26.66;83.50;95368.97;5056669;28;20177;-60
2022/10/14 09:04:03;;;;;;;1999.90;999.90;;;;;;;26.74;81.83;95367.22;5055120;28;20194;-60
2022/10/14 09:06:32;;;;;;;1999.90;999.90;;;;;;;26.53;81.89;95371.50;5055861;28;20191;-60
2022/10/14 09:09:27;;;;;;;1999.90;999.90;;;;;;;26.44;88.75;95374.53;5055463;28;20170;-65
2022/10/14 09:12:04;;;;;;;1999.90;999.90;;;;;;;26.25;86.35;95370.69;5055827;28;20170;-68
2022/10/14 09:14:36;;;;;;;1999.90;999.90;;;;;;;26.09;82.97;95381.84;5055007;28;20220;-67
2022/10/14 09:17:25;;;;;;;1999.90;999.90;;;;;;;25.01;89.76;95362.69;5054701;28;20178;-69
2022/10/14 09:20:00;;;;;;;1999.90;999.90;;;;;;;23.93;100.00;95353.59;5054004;28;20222;-70
2022/10/14 09:22:26;;;;;;;1999.90;999.90;;;;;;;23.47;100.00;95344.38;5055507;28;20172;-69
2022/10/14 09:24:52;;;;;;;1999.90;999.90;;;;;;;23.16;100.00;95341.44;5055548;28;20197;-68
2022/10/14 09:27:23;;;;;;;1999.90;999.90;;;;;;;23.14;100.00;95338.34;5055987;28;20178;-64
2022/10/14 09:30:14;;;;;;;1999.90;999.90;;;;;;;23.19;100.00;95334.88;5055500;28;20170;-62
2022/10/14 09:32:53;;;;;;;1999.90;999.90;;;;;;;23.71;100.00;95331.75;5053575;28;20204;-63
2022/10/14 09:35:40;;;;;;;1999.90;999.90;;;;;;;23.58;100.00;95344.53;5055521;28;20236;-62
2022/10/14 09:38:06;;;;;;;1999.90;999.90;;;;;;;23.05;100.00;95352.41;5054804;28;20223;-62
2022/10/14 09:40:36;;;;;;;1999.90;999.90;;;;;;;22.86;100.00;95339.97;5054749;28;20166;-62
2022/10/14 09:43:14;;;;;;;1999.90;999.90;;;;;;;23.46;100.00;95332.47;5054463;28;20178;-62
2022/10/14 09:45:48;;;;;;;1999.90;999.90;;;;;;;24.26;100.00;95340.72;5054342;28;20169;-67
2022/10/14 09:48:18;;;;;;;1999.90;999.90;;;;;;;24.72;93.91;95346.22;5054547;28;20245;-61
2022/10/14 09:50:52;;;;;;;1999.90;999.90;;;;;;;25.32;90.27;95345.91;5055063;28;20197;-62
2022/10/14 09:53:29;;;;;;;1999.90;999.90;;;;;;;25.23;94.64;95335.66;5054364;28;20189;-61
2022/10/14 09:55:58;;;;;;;1999.90;999.90;;;;;;;25.93;87.14;95346.91;5054211;28;20256;-62
2022/10/14 09:58:37;;;;;;;1999.90;999.90;;;;;;;25.18;85.45;95341.97;5054365;28;20178;-61
2022/10/14 10:01:04;;;;;;;1999.90;999.90;;;;;;;25.29;81.74;95352.47;5054727;28;20174;-62
2022/10/14 10:03:33;;;;;;;1999.90;999.90;;;;;;;25.00;83.19;95344.41;5054411;28;20202;-61
2022/10/14 10:06:11;;;;;;;1999.90;999.90;;;;;;;24.67;80.90;95353.31;5054634;28;20193;-63
2022/10/14 10:08:40;;;;;;;1999.90;999.90;;;;;;;24.90;79.02;95348.63;5054750;28;20170;-69
2022/10/14 10:11:12;;;;;;;1999.90;999.90;;;;;;;25.26;80.55;95343.03;5054618;28;20184;-69
2022/10/14 10:13:45;;;;;;;1999.90;999.90;;;;;;;24.69;80.48;95347.22;5054708;28;20189;-70
2022/10/14 10:16:32;;;;;;;1999.90;999.90;;;;;;;24.21;76.91;95344.22;5054449;28;20178;-69
2022/10/14 10:19:28;;;;;;;1999.90;999.90;;;;;;;24.91;77.40;95347.41;5054535;28;20170;-67
2022/10/14 10:22:15;;;;;;;1999.90;999.90;;;;;;;25.84;65.18;95361.13;5050593;28;20196;-67
2022/10/14 10:24:41;;;;;;;1999.90;999.90;;;;;;;26.23;62.21;95359.25;5054315;28;20180;-62
2022/10/14 10:27:36;;;;;;;1999.90;999.90;;;;;;;26.15;67.58;95352.59;5054412;28;20178;-61
2022/10/14 10:30:31;;;;;;;1999.90;999.90;;;;;;;26.42;62.69;95348.31;5053653;28;20234;-61
2022/10/14 10:33:25;;;;;;;1999.90;999.90;;;;;;;26.74;63.70;95342.00;5044898;28;20189;-62
2022/10/14 10:36:18;;;;;;;1999.90;999.90;;;;;;;27.02;62.96;95334.31;5053986;28;20184;-61
2022/10/14 10:38:44;;;;;;;1999.90;999.90;;;;;;;26.77;63.06;95324.13;5053367;28;20174;-62
2022/10/14 10:41:31;;;;;;;1999.90;999.90;;;;;;;26.72;64.16;95322.09;5053496;28;20182;-67
2022/10/14 10:44:11;;;;;;;1999.90;999.90;;;;;;;26.18;66.96;95311.63;5053797;28;20247;-61
2022/10/14 10:46:36;;;;;;;1999.90;999.90;;;;;;;26.22;68.95;95306.53;5053329;28;20174;-62
2022/10/14 10:49:24;;;;;;;1999.90;999.90;;;;;;;26.44;68.50;95307.28;5054041;28;20170;-62
2022/10/14 10:52:02;;;;;;;1999.90;999.90;;;;;;;26.28;70.08;95307.28;5053133;28;20169;-61
2022/10/14 10:55:01;;;;;;;1999.90;999.90;;;;;;;25.96;70.70;95301.13;5053914;28;20228;-62
2022/10/14 10:57:52;;;;;;;1999.90;999.90;;;;;;;24.92;72.75;95302.16;5053906;28;20170;-62